Weer

Current Metar

EHAM: EHAM 212025Z 19004KT 9999 RA FEW014 SCT016 OVC024 05/03 Q0984 BECMG 7000 BKN016
EHRD: EHRD 212025Z AUTO 13003KT 100V170 9000 -RA BKN001 SCT015CB 05/03 Q0984 TEMPO 6000 RA
EHGG: EHGG 212025Z AUTO 19012KT 9999 NSC 06/03 Q0985 NOSIG
EHEH: EHEH 212025Z AUTO 16013KT 130V190 9999 -RA FEW008 SCT024 BKN031 07/06 Q0984 WHT TEMPO 4000 RADZ SCT010 BKN015 BKN020
EHBK: EHBK 212025Z AUTO 18015KT 150V220 9999 -RADZ FEW031 SCT045 08/06 Q0985 REDZRA NOSIG

Search METAR


Wind Charts

+ 0600h
FL100 FL180 FL240 FL300 FL340

+ 1200h
FL100 FL180 FL240 FL300 FL340

+ 1800h
FL100 FL180 FL240 FL300 FL340

+ 2400h
FL100 FL180 FL240 FL300 FL340

Europe & Africa charts only, updated daily.

 

Weather Services

MET Office